sensor_id;sensor_type;location;lat;lon;timestamp;P1;durP1;ratioP1;P2;durP2;ratioP2
74383;SDS011;62824;52.994;-3.936;2023-09-18T00:00:46;7.07;;;5.22;;
74383;SDS011;62824;52.994;-3.936;2023-09-18T00:03:20;6.78;;;4.95;;
74383;SDS011;62824;52.994;-3.936;2023-09-18T00:05:49;7.45;;;5.07;;
74383;SDS011;62824;52.994;-3.936;2023-09-18T00:08:16;8.73;;;5.50;;
74383;SDS011;62824;52.994;-3.936;2023-09-18T00:10:54;10.70;;;5.35;;
74383;SDS011;62824;52.994;-3.936;2023-09-18T00:13:20;7.25;;;5.15;;
74383;SDS011;62824;52.994;-3.936;2023-09-18T00:15:47;10.23;;;5.72;;
74383;SDS011;62824;52.994;-3.936;2023-09-18T00:18:14;8.45;;;5.20;;
74383;SDS011;62824;52.994;-3.936;2023-09-18T00:20:41;7.07;;;4.97;;
74383;SDS011;62824;52.994;-3.936;2023-09-18T00:23:07;8.27;;;5.38;;
74383;SDS011;62824;52.994;-3.936;2023-09-18T00:25:34;7.00;;;5.40;;
74383;SDS011;62824;52.994;-3.936;2023-09-18T00:27:59;8.05;;;5.13;;
74383;SDS011;62824;52.994;-3.936;2023-09-18T00:30:25;8.52;;;4.72;;
74383;SDS011;62824;52.994;-3.936;2023-09-18T00:32:51;8.13;;;5.40;;
74383;SDS011;62824;52.994;-3.936;2023-09-18T00:35:17;6.03;;;4.68;;
74383;SDS011;62824;52.994;-3.936;2023-09-18T00:37:43;9.30;;;5.10;;
74383;SDS011;62824;52.994;-3.936;2023-09-18T00:40:09;7.70;;;5.35;;
74383;SDS011;62824;52.994;-3.936;2023-09-18T00:42:36;6.28;;;4.63;;
74383;SDS011;62824;52.994;-3.936;2023-09-18T00:45:02;8.00;;;5.35;;
74383;SDS011;62824;52.994;-3.936;2023-09-18T00:47:28;8.80;;;4.97;;
74383;SDS011;62824;52.994;-3.936;2023-09-18T00:49:54;9.95;;;5.28;;
74383;SDS011;62824;52.994;-3.936;2023-09-18T00:52:21;8.13;;;4.93;;
74383;SDS011;62824;52.994;-3.936;2023-09-18T00:54:49;8.85;;;4.90;;
74383;SDS011;62824;52.994;-3.936;2023-09-18T00:57:15;7.97;;;4.65;;
74383;SDS011;62824;52.994;-3.936;2023-09-18T00:59:41;9.40;;;4.93;;
74383;SDS011;62824;52.994;-3.936;2023-09-18T01:02:07;9.43;;;5.32;;
74383;SDS011;62824;52.994;-3.936;2023-09-18T01:04:33;8.82;;;5.03;;
74383;SDS011;62824;52.994;-3.936;2023-09-18T01:07:00;8.38;;;5.63;;
74383;SDS011;62824;52.994;-3.936;2023-09-18T01:09:29;8.93;;;5.97;;
74383;SDS011;62824;52.994;-3.936;2023-09-18T01:12:11;11.57;;;5.93;;
74383;SDS011;62824;52.994;-3.936;2023-09-18T01:17:13;7.53;;;5.35;;
74383;SDS011;62824;52.994;-3.936;2023-09-18T01:19:41;7.70;;;5.60;;
74383;SDS011;62824;52.994;-3.936;2023-09-18T01:22:12;7.57;;;5.00;;
74383;SDS011;62824;52.994;-3.936;2023-09-18T01:24:40;6.47;;;4.35;;
74383;SDS011;62824;52.994;-3.936;2023-09-18T01:27:10;10.68;;;5.28;;
74383;SDS011;62824;52.994;-3.936;2023-09-18T01:29:38;7.88;;;4.68;;
74383;SDS011;62824;52.994;-3.936;2023-09-18T01:32:05;10.07;;;4.65;;
74383;SDS011;62824;52.994;-3.936;2023-09-18T01:34:32;6.10;;;4.45;;
74383;SDS011;62824;52.994;-3.936;2023-09-18T01:37:04;7.45;;;4.40;;
74383;SDS011;62824;52.994;-3.936;2023-09-18T01:39:32;6.38;;;4.70;;
74383;SDS011;62824;52.994;-3.936;2023-09-18T01:41:59;7.10;;;4.63;;
74383;SDS011;62824;52.994;-3.936;2023-09-18T01:44:27;7.85;;;4.80;;
74383;SDS011;62824;52.994;-3.936;2023-09-18T01:46:53;6.20;;;4.00;;
74383;SDS011;62824;52.994;-3.936;2023-09-18T01:52:16;3.95;;;3.28;;
74383;SDS011;62824;52.994;-3.936;2023-09-18T01:54:42;6.60;;;3.50;;
74383;SDS011;62824;52.994;-3.936;2023-09-18T01:57:08;7.90;;;3.60;;
74383;SDS011;62824;52.994;-3.936;2023-09-18T01:59:34;7.18;;;3.78;;
74383;SDS011;62824;52.994;-3.936;2023-09-18T02:02:00;5.47;;;3.20;;
74383;SDS011;62824;52.994;-3.936;2023-09-18T02:04:28;5.68;;;3.30;;
74383;SDS011;62824;52.994;-3.936;2023-09-18T02:06:54;5.38;;;2.88;;
74383;SDS011;62824;52.994;-3.936;2023-09-18T02:09:21;4.72;;;3.10;;
74383;SDS011;62824;52.994;-3.936;2023-09-18T02:11:47;7.60;;;3.45;;
74383;SDS011;62824;52.994;-3.936;2023-09-18T02:14:13;5.72;;;3.28;;
74383;SDS011;62824;52.994;-3.936;2023-09-18T02:16:40;6.43;;;3.55;;
74383;SDS011;62824;52.994;-3.936;2023-09-18T02:19:10;6.15;;;3.75;;
74383;SDS011;62824;52.994;-3.936;2023-09-18T02:21:38;5.85;;;3.22;;
74383;SDS011;62824;52.994;-3.936;2023-09-18T02:24:04;5.70;;;3.13;;
74383;SDS011;62824;52.994;-3.936;2023-09-18T02:26:30;5.30;;;3.20;;
74383;SDS011;62824;52.994;-3.936;2023-09-18T02:28:58;5.03;;;3.53;;
74383;SDS011;62824;52.994;-3.936;2023-09-18T02:31:29;5.88;;;3.70;;
74383;SDS011;62824;52.994;-3.936;2023-09-18T02:33:55;6.57;;;3.85;;
74383;SDS011;62824;52.994;-3.936;2023-09-18T02:36:21;6.13;;;3.58;;
74383;SDS011;62824;52.994;-3.936;2023-09-18T02:38:47;7.47;;;3.55;;
74383;SDS011;62824;52.994;-3.936;2023-09-18T02:41:12;5.50;;;3.70;;
74383;SDS011;62824;52.994;-3.936;2023-09-18T02:43:38;9.18;;;4.18;;
74383;SDS011;62824;52.994;-3.936;2023-09-18T02:46:04;8.13;;;3.35;;
74383;SDS011;62824;52.994;-3.936;2023-09-18T02:48:30;6.43;;;3.83;;
74383;SDS011;62824;52.994;-3.936;2023-09-18T02:50:58;5.47;;;3.10;;
74383;SDS011;62824;52.994;-3.936;2023-09-18T02:53:27;7.68;;;2.97;;
74383;SDS011;62824;52.994;-3.936;2023-09-18T02:55:55;5.53;;;3.13;;
74383;SDS011;62824;52.994;-3.936;2023-09-18T02:58:22;7.65;;;3.42;;
74383;SDS011;62824;52.994;-3.936;2023-09-18T03:00:51;8.48;;;3.97;;
74383;SDS011;62824;52.994;-3.936;2023-09-18T03:03:18;6.40;;;2.80;;
74383;SDS011;62824;52.994;-3.936;2023-09-18T03:05:44;7.43;;;3.08;;
74383;SDS011;62824;52.994;-3.936;2023-09-18T03:08:10;6.15;;;3.05;;
74383;SDS011;62824;52.994;-3.936;2023-09-18T03:10:40;4.65;;;2.40;;
74383;SDS011;62824;52.994;-3.936;2023-09-18T03:13:13;5.90;;;2.40;;
74383;SDS011;62824;52.994;-3.936;2023-09-18T03:15:39;5.93;;;2.15;;
74383;SDS011;62824;52.994;-3.936;2023-09-18T03:18:09;6.22;;;2.65;;
74383;SDS011;62824;52.994;-3.936;2023-09-18T03:20:34;5.03;;;2.55;;
74383;SDS011;62824;52.994;-3.936;2023-09-18T03:23:01;6.13;;;3.10;;
74383;SDS011;62824;52.994;-3.936;2023-09-18T03:25:28;6.35;;;2.60;;
74383;SDS011;62824;52.994;-3.936;2023-09-18T03:27:54;21.08;;;3.13;;
74383;SDS011;62824;52.994;-3.936;2023-09-18T03:30:21;5.65;;;2.75;;
74383;SDS011;62824;52.994;-3.936;2023-09-18T03:32:51;6.55;;;2.83;;
74383;SDS011;62824;52.994;-3.936;2023-09-18T03:35:17;5.82;;;2.58;;
74383;SDS011;62824;52.994;-3.936;2023-09-18T03:37:44;5.90;;;2.30;;
74383;SDS011;62824;52.994;-3.936;2023-09-18T03:40:10;6.07;;;2.65;;
74383;SDS011;62824;52.994;-3.936;2023-09-18T03:42:36;5.07;;;2.60;;
74383;SDS011;62824;52.994;-3.936;2023-09-18T03:45:02;5.00;;;2.65;;
74383;SDS011;62824;52.994;-3.936;2023-09-18T03:47:28;5.32;;;2.47;;
74383;SDS011;62824;52.994;-3.936;2023-09-18T03:49:54;6.60;;;2.50;;
74383;SDS011;62824;52.994;-3.936;2023-09-18T03:52:19;6.63;;;2.60;;
74383;SDS011;62824;52.994;-3.936;2023-09-18T03:54:45;8.20;;;2.65;;
74383;SDS011;62824;52.994;-3.936;2023-09-18T03:57:11;5.03;;;1.88;;
74383;SDS011;62824;52.994;-3.936;2023-09-18T03:59:38;5.70;;;2.13;;
74383;SDS011;62824;52.994;-3.936;2023-09-18T04:02:03;5.25;;;3.20;;
74383;SDS011;62824;52.994;-3.936;2023-09-18T04:04:30;7.10;;;2.53;;
74383;SDS011;62824;52.994;-3.936;2023-09-18T04:06:57;8.05;;;2.70;;
74383;SDS011;62824;52.994;-3.936;2023-09-18T04:09:23;7.45;;;2.85;;
74383;SDS011;62824;52.994;-3.936;2023-09-18T04:11:48;6.03;;;2.45;;
74383;SDS011;62824;52.994;-3.936;2023-09-18T04:14:14;4.55;;;2.22;;
74383;SDS011;62824;52.994;-3.936;2023-09-18T04:16:40;5.88;;;2.10;;
74383;SDS011;62824;52.994;-3.936;2023-09-18T04:19:08;6.25;;;1.98;;
74383;SDS011;62824;52.994;-3.936;2023-09-18T04:21:35;4.80;;;2.25;;
74383;SDS011;62824;52.994;-3.936;2023-09-18T04:24:01;9.48;;;2.85;;
74383;SDS011;62824;52.994;-3.936;2023-09-18T04:26:27;4.70;;;2.22;;
74383;SDS011;62824;52.994;-3.936;2023-09-18T04:28:56;4.22;;;2.45;;
74383;SDS011;62824;52.994;-3.936;2023-09-18T04:31:22;6.28;;;2.40;;
74383;SDS011;62824;52.994;-3.936;2023-09-18T04:33:48;6.15;;;2.60;;
74383;SDS011;62824;52.994;-3.936;2023-09-18T04:36:14;5.78;;;2.35;;
74383;SDS011;62824;52.994;-3.936;2023-09-18T04:38:40;3.78;;;1.90;;
74383;SDS011;62824;52.994;-3.936;2023-09-18T04:41:06;3.92;;;2.15;;
74383;SDS011;62824;52.994;-3.936;2023-09-18T04:43:35;4.07;;;1.63;;
74383;SDS011;62824;52.994;-3.936;2023-09-18T04:46:01;4.70;;;2.13;;
74383;SDS011;62824;52.994;-3.936;2023-09-18T04:48:29;4.55;;;1.60;;
74383;SDS011;62824;52.994;-3.936;2023-09-18T04:50:58;3.63;;;1.98;;
74383;SDS011;62824;52.994;-3.936;2023-09-18T04:53:25;3.28;;;1.92;;
74383;SDS011;62824;52.994;-3.936;2023-09-18T04:55:53;6.22;;;2.25;;
74383;SDS011;62824;52.994;-3.936;2023-09-18T04:58:19;4.95;;;1.77;;
74383;SDS011;62824;52.994;-3.936;2023-09-18T05:00:45;4.15;;;1.70;;
74383;SDS011;62824;52.994;-3.936;2023-09-18T05:03:11;4.20;;;1.80;;
74383;SDS011;62824;52.994;-3.936;2023-09-18T05:05:38;4.05;;;2.08;;
74383;SDS011;62824;52.994;-3.936;2023-09-18T05:08:05;5.10;;;1.95;;
74383;SDS011;62824;52.994;-3.936;2023-09-18T05:10:33;4.50;;;1.60;;
74383;SDS011;62824;52.994;-3.936;2023-09-18T05:12:59;6.10;;;1.98;;
74383;SDS011;62824;52.994;-3.936;2023-09-18T05:15:25;5.53;;;2.20;;
74383;SDS011;62824;52.994;-3.936;2023-09-18T05:17:54;5.93;;;2.63;;
74383;SDS011;62824;52.994;-3.936;2023-09-18T05:20:22;5.88;;;2.10;;
74383;SDS011;62824;52.994;-3.936;2023-09-18T05:22:53;6.85;;;2.10;;
74383;SDS011;62824;52.994;-3.936;2023-09-18T05:25:23;6.45;;;2.25;;
74383;SDS011;62824;52.994;-3.936;2023-09-18T05:27:50;7.10;;;2.22;;
74383;SDS011;62824;52.994;-3.936;2023-09-18T05:30:24;5.32;;;2.78;;
74383;SDS011;62824;52.994;-3.936;2023-09-18T05:32:56;9.18;;;2.30;;
74383;SDS011;62824;52.994;-3.936;2023-09-18T05:35:29;5.72;;;2.22;;
74383;SDS011;62824;52.994;-3.936;2023-09-18T05:37:58;6.22;;;2.30;;
74383;SDS011;62824;52.994;-3.936;2023-09-18T05:40:24;5.95;;;2.20;;
74383;SDS011;62824;52.994;-3.936;2023-09-18T05:42:52;5.20;;;2.50;;
74383;SDS011;62824;52.994;-3.936;2023-09-18T05:45:19;5.20;;;2.63;;
74383;SDS011;62824;52.994;-3.936;2023-09-18T05:47:45;6.22;;;2.08;;
74383;SDS011;62824;52.994;-3.936;2023-09-18T05:50:12;4.95;;;2.92;;
74383;SDS011;62824;52.994;-3.936;2023-09-18T05:52:45;6.75;;;2.30;;
74383;SDS011;62824;52.994;-3.936;2023-09-18T05:55:12;5.65;;;2.25;;
74383;SDS011;62824;52.994;-3.936;2023-09-18T05:57:39;4.55;;;1.63;;
74383;SDS011;62824;52.994;-3.936;2023-09-18T06:00:04;4.68;;;1.80;;
74383;SDS011;62824;52.994;-3.936;2023-09-18T06:02:31;7.35;;;2.03;;
74383;SDS011;62824;52.994;-3.936;2023-09-18T06:04:57;7.45;;;2.00;;
74383;SDS011;62824;52.994;-3.936;2023-09-18T06:07:31;12.68;;;2.17;;
74383;SDS011;62824;52.994;-3.936;2023-09-18T06:09:57;6.15;;;1.40;;
74383;SDS011;62824;52.994;-3.936;2023-09-18T06:12:23;1.38;;;0.70;;
74383;SDS011;62824;52.994;-3.936;2023-09-18T06:14:50;1.20;;;0.70;;
74383;SDS011;62824;52.994;-3.936;2023-09-18T06:17:16;0.40;;;0.20;;
74383;SDS011;62824;52.994;-3.936;2023-09-18T06:19:42;0.10;;;0.10;;
74383;SDS011;62824;52.994;-3.936;2023-09-18T06:22:08;0.20;;;0.20;;
74383;SDS011;62824;52.994;-3.936;2023-09-18T06:24:35;0.20;;;0.20;;
74383;SDS011;62824;52.994;-3.936;2023-09-18T06:27:01;0.20;;;0.20;;
74383;SDS011;62824;52.994;-3.936;2023-09-18T06:29:29;0.52;;;0.30;;
74383;SDS011;62824;52.994;-3.936;2023-09-18T06:31:55;0.30;;;0.22;;
74383;SDS011;62824;52.994;-3.936;2023-09-18T06:34:21;0.57;;;0.08;;
74383;SDS011;62824;52.994;-3.936;2023-09-18T06:36:47;0.10;;;0.10;;
74383;SDS011;62824;52.994;-3.936;2023-09-18T06:39:14;0.13;;;0.13;;
74383;SDS011;62824;52.994;-3.936;2023-09-18T06:41:40;0.20;;;0.20;;
74383;SDS011;62824;52.994;-3.936;2023-09-18T06:44:06;0.35;;;0.30;;
74383;SDS011;62824;52.994;-3.936;2023-09-18T06:46:32;0.28;;;0.25;;
74383;SDS011;62824;52.994;-3.936;2023-09-18T06:48:57;0.50;;;0.30;;
74383;SDS011;62824;52.994;-3.936;2023-09-18T06:51:28;0.20;;;0.20;;
74383;SDS011;62824;52.994;-3.936;2023-09-18T06:53:54;0.60;;;0.60;;
74383;SDS011;62824;52.994;-3.936;2023-09-18T06:56:22;1.20;;;0.60;;
74383;SDS011;62824;52.994;-3.936;2023-09-18T06:58:48;1.20;;;0.68;;
74383;SDS011;62824;52.994;-3.936;2023-09-18T07:01:16;0.30;;;0.30;;
74383;SDS011;62824;52.994;-3.936;2023-09-18T07:03:46;0.25;;;0.25;;
74383;SDS011;62824;52.994;-3.936;2023-09-18T07:06:13;0.30;;;0.30;;
74383;SDS011;62824;52.994;-3.936;2023-09-18T07:08:48;0.32;;;0.20;;
74383;SDS011;62824;52.994;-3.936;2023-09-18T07:11:14;0.20;;;0.20;;
74383;SDS011;62824;52.994;-3.936;2023-09-18T07:13:41;0.47;;;0.30;;
74383;SDS011;62824;52.994;-3.936;2023-09-18T07:16:08;0.40;;;0.40;;
74383;SDS011;62824;52.994;-3.936;2023-09-18T07:18:34;1.88;;;0.50;;
74383;SDS011;62824;52.994;-3.936;2023-09-18T07:21:00;0.70;;;0.60;;
74383;SDS011;62824;52.994;-3.936;2023-09-18T07:23:26;0.60;;;0.60;;
74383;SDS011;62824;52.994;-3.936;2023-09-18T07:25:52;0.30;;;0.30;;
74383;SDS011;62824;52.994;-3.936;2023-09-18T07:28:17;0.20;;;0.20;;
74383;SDS011;62824;52.994;-3.936;2023-09-18T07:30:45;0.75;;;0.22;;
74383;SDS011;62824;52.994;-3.936;2023-09-18T07:33:12;0.32;;;0.32;;
74383;SDS011;62824;52.994;-3.936;2023-09-18T07:35:41;0.20;;;0.20;;
74383;SDS011;62824;52.994;-3.936;2023-09-18T07:38:07;0.20;;;0.20;;
74383;SDS011;62824;52.994;-3.936;2023-09-18T07:40:33;0.40;;;0.20;;
74383;SDS011;62824;52.994;-3.936;2023-09-18T07:42:59;0.75;;;0.75;;
74383;SDS011;62824;52.994;-3.936;2023-09-18T07:45:24;0.60;;;0.60;;
74383;SDS011;62824;52.994;-3.936;2023-09-18T07:47:50;0.50;;;0.50;;
74383;SDS011;62824;52.994;-3.936;2023-09-18T07:50:16;1.13;;;0.40;;
74383;SDS011;62824;52.994;-3.936;2023-09-18T07:52:43;0.47;;;0.43;;
74383;SDS011;62824;52.994;-3.936;2023-09-18T07:55:08;1.00;;;0.70;;
74383;SDS011;62824;52.994;-3.936;2023-09-18T07:57:34;0.40;;;0.40;;
74383;SDS011;62824;52.994;-3.936;2023-09-18T08:00:02;0.70;;;0.40;;
74383;SDS011;62824;52.994;-3.936;2023-09-18T08:02:33;0.50;;;0.40;;
74383;SDS011;62824;52.994;-3.936;2023-09-18T08:05:00;0.63;;;0.40;;
74383;SDS011;62824;52.994;-3.936;2023-09-18T08:07:27;0.40;;;0.40;;
74383;SDS011;62824;52.994;-3.936;2023-09-18T08:09:53;1.27;;;0.70;;
74383;SDS011;62824;52.994;-3.936;2023-09-18T08:12:19;1.23;;;0.70;;
74383;SDS011;62824;52.994;-3.936;2023-09-18T08:14:45;1.13;;;0.95;;
74383;SDS011;62824;52.994;-3.936;2023-09-18T08:17:11;3.17;;;1.40;;
74383;SDS011;62824;52.994;-3.936;2023-09-18T08:19:37;4.35;;;1.42;;
74383;SDS011;62824;52.994;-3.936;2023-09-18T08:22:04;2.90;;;1.30;;
74383;SDS011;62824;52.994;-3.936;2023-09-18T08:24:30;3.75;;;1.20;;
74383;SDS011;62824;52.994;-3.936;2023-09-18T08:26:56;4.10;;;1.40;;
74383;SDS011;62824;52.994;-3.936;2023-09-18T08:29:22;6.32;;;1.67;;
74383;SDS011;62824;52.994;-3.936;2023-09-18T08:31:48;4.53;;;1.50;;
74383;SDS011;62824;52.994;-3.936;2023-09-18T08:34:15;3.25;;;1.48;;
74383;SDS011;62824;52.994;-3.936;2023-09-18T08:36:41;2.97;;;1.45;;
74383;SDS011;62824;52.994;-3.936;2023-09-18T08:39:07;4.13;;;1.40;;
74383;SDS011;62824;52.994;-3.936;2023-09-18T08:41:33;4.10;;;1.50;;
74383;SDS011;62824;52.994;-3.936;2023-09-18T08:44:03;2.65;;;1.33;;
74383;SDS011;62824;52.994;-3.936;2023-09-18T08:46:32;4.40;;;1.35;;
74383;SDS011;62824;52.994;-3.936;2023-09-18T08:48:59;4.38;;;1.40;;
74383;SDS011;62824;52.994;-3.936;2023-09-18T08:51:26;4.50;;;1.40;;
74383;SDS011;62824;52.994;-3.936;2023-09-18T08:53:52;1.88;;;1.17;;
74383;SDS011;62824;52.994;-3.936;2023-09-18T08:56:19;2.63;;;1.10;;
74383;SDS011;62824;52.994;-3.936;2023-09-18T08:58:46;5.78;;;1.58;;
74383;SDS011;62824;52.994;-3.936;2023-09-18T09:01:14;2.53;;;1.15;;
74383;SDS011;62824;52.994;-3.936;2023-09-18T09:03:40;2.97;;;1.20;;
74383;SDS011;62824;52.994;-3.936;2023-09-18T09:06:11;3.53;;;1.20;;
74383;SDS011;62824;52.994;-3.936;2023-09-18T09:08:37;2.38;;;1.10;;
74383;SDS011;62824;52.994;-3.936;2023-09-18T09:11:03;5.75;;;1.80;;
74383;SDS011;62824;52.994;-3.936;2023-09-18T09:13:29;2.60;;;1.17;;
74383;SDS011;62824;52.994;-3.936;2023-09-18T09:15:56;4.20;;;1.17;;
74383;SDS011;62824;52.994;-3.936;2023-09-18T09:18:24;2.47;;;1.27;;
74383;SDS011;62824;52.994;-3.936;2023-09-18T09:20:55;4.90;;;1.40;;
74383;SDS011;62824;52.994;-3.936;2023-09-18T09:23:26;2.63;;;1.50;;
74383;SDS011;62824;52.994;-3.936;2023-09-18T09:25:53;1.65;;;0.88;;
74383;SDS011;62824;52.994;-3.936;2023-09-18T09:28:29;1.60;;;1.20;;
74383;SDS011;62824;52.994;-3.936;2023-09-18T09:31:02;2.67;;;1.02;;
74383;SDS011;62824;52.994;-3.936;2023-09-18T09:33:29;1.40;;;0.90;;
74383;SDS011;62824;52.994;-3.936;2023-09-18T09:35:56;1.95;;;1.00;;
74383;SDS011;62824;52.994;-3.936;2023-09-18T09:38:27;4.07;;;1.48;;
74383;SDS011;62824;52.994;-3.936;2023-09-18T09:40:59;0.73;;;0.73;;
74383;SDS011;62824;52.994;-3.936;2023-09-18T09:43:26;0.50;;;0.50;;
74383;SDS011;62824;52.994;-3.936;2023-09-18T09:45:56;0.68;;;0.50;;
74383;SDS011;62824;52.994;-3.936;2023-09-18T09:48:23;0.60;;;0.60;;
74383;SDS011;62824;52.994;-3.936;2023-09-18T09:50:52;1.40;;;0.50;;
74383;SDS011;62824;52.994;-3.936;2023-09-18T09:53:41;1.63;;;0.77;;
74383;SDS011;62824;52.994;-3.936;2023-09-18T09:58:35;0.40;;;0.40;;
74383;SDS011;62824;52.994;-3.936;2023-09-18T10:01:03;1.40;;;0.32;;
74383;SDS011;62824;52.994;-3.936;2023-09-18T10:03:36;0.25;;;0.25;;
74383;SDS011;62824;52.994;-3.936;2023-09-18T10:06:04;1.05;;;0.43;;
74383;SDS011;62824;52.994;-3.936;2023-09-18T10:08:31;0.73;;;0.40;;
74383;SDS011;62824;52.994;-3.936;2023-09-18T10:11:00;0.43;;;0.38;;
74383;SDS011;62824;52.994;-3.936;2023-09-18T10:13:44;0.77;;;0.57;;
74383;SDS011;62824;52.994;-3.936;2023-09-18T10:16:23;0.80;;;0.30;;
74383;SDS011;62824;52.994;-3.936;2023-09-18T10:19:06;0.90;;;0.40;;
74383;SDS011;62824;52.994;-3.936;2023-09-18T10:24:13;0.80;;;0.45;;
74383;SDS011;62824;52.994;-3.936;2023-09-18T10:26:56;1.70;;;0.60;;
74383;SDS011;62824;52.994;-3.936;2023-09-18T10:29:24;0.73;;;0.70;;
74383;SDS011;62824;52.994;-3.936;2023-09-18T10:31:51;2.10;;;1.20;;
74383;SDS011;62824;52.994;-3.936;2023-09-18T10:34:19;2.38;;;0.82;;
74383;SDS011;62824;52.994;-3.936;2023-09-18T10:36:49;2.08;;;0.68;;
74383;SDS011;62824;52.994;-3.936;2023-09-18T10:39:16;0.73;;;0.60;;
74383;SDS011;62824;52.994;-3.936;2023-09-18T10:41:49;2.35;;;0.80;;
74383;SDS011;62824;52.994;-3.936;2023-09-18T10:44:18;2.47;;;1.10;;
74383;SDS011;62824;52.994;-3.936;2023-09-18T10:46:48;1.17;;;0.70;;
74383;SDS011;62824;52.994;-3.936;2023-09-18T10:49:18;2.42;;;0.73;;
74383;SDS011;62824;52.994;-3.936;2023-09-18T10:51:45;4.00;;;0.75;;
74383;SDS011;62824;52.994;-3.936;2023-09-18T10:54:16;2.80;;;0.80;;
74383;SDS011;62824;52.994;-3.936;2023-09-18T10:56:46;2.25;;;0.60;;
74383;SDS011;62824;52.994;-3.936;2023-09-18T10:59:13;0.73;;;0.68;;
74383;SDS011;62824;52.994;-3.936;2023-09-18T11:01:39;2.05;;;0.60;;
74383;SDS011;62824;52.994;-3.936;2023-09-18T11:04:06;2.35;;;1.00;;
74383;SDS011;62824;52.994;-3.936;2023-09-18T11:09:19;2.13;;;1.10;;
74383;SDS011;62824;52.994;-3.936;2023-09-18T11:14:45;3.15;;;1.25;;
74383;SDS011;62824;52.994;-3.936;2023-09-18T11:22:55;1.90;;;1.00;;
74383;SDS011;62824;52.994;-3.936;2023-09-18T11:25:29;4.07;;;1.90;;
74383;SDS011;62824;52.994;-3.936;2023-09-18T11:28:00;5.35;;;1.10;;
74383;SDS011;62824;52.994;-3.936;2023-09-18T11:30:27;1.98;;;1.27;;
74383;SDS011;62824;52.994;-3.936;2023-09-18T11:32:54;3.55;;;1.23;;
74383;SDS011;62824;52.994;-3.936;2023-09-18T11:35:23;4.32;;;1.70;;
74383;SDS011;62824;52.994;-3.936;2023-09-18T11:38:06;6.40;;;2.80;;
74383;SDS011;62824;52.994;-3.936;2023-09-18T11:40:34;4.63;;;1.73;;
74383;SDS011;62824;52.994;-3.936;2023-09-18T11:43:18;4.35;;;1.70;;
74383;SDS011;62824;52.994;-3.936;2023-09-18T11:45:44;5.03;;;2.17;;
74383;SDS011;62824;52.994;-3.936;2023-09-18T11:48:15;4.78;;;1.13;;
74383;SDS011;62824;52.994;-3.936;2023-09-18T11:50:41;3.38;;;1.20;;
74383;SDS011;62824;52.994;-3.936;2023-09-18T11:53:09;7.82;;;1.63;;
74383;SDS011;62824;52.994;-3.936;2023-09-18T11:55:39;8.35;;;1.58;;
74383;SDS011;62824;52.994;-3.936;2023-09-18T11:58:05;5.38;;;1.42;;
74383;SDS011;62824;52.994;-3.936;2023-09-18T12:00:34;6.47;;;1.35;;
74383;SDS011;62824;52.994;-3.936;2023-09-18T12:05:59;3.38;;;1.30;;
74383;SDS011;62824;52.994;-3.936;2023-09-18T12:08:26;5.25;;;1.35;;
74383;SDS011;62824;52.994;-3.936;2023-09-18T12:10:57;5.47;;;1.50;;
74383;SDS011;62824;52.994;-3.936;2023-09-18T12:13:27;2.33;;;1.08;;
74383;SDS011;62824;52.994;-3.936;2023-09-18T12:16:01;2.90;;;1.33;;
74383;SDS011;62824;52.994;-3.936;2023-09-18T12:18:30;4.53;;;1.40;;
74383;SDS011;62824;52.994;-3.936;2023-09-18T12:20:59;4.32;;;1.55;;
74383;SDS011;62824;52.994;-3.936;2023-09-18T12:23:29;3.58;;;1.00;;
74383;SDS011;62824;52.994;-3.936;2023-09-18T12:26:01;5.47;;;1.33;;
74383;SDS011;62824;52.994;-3.936;2023-09-18T12:28:29;3.75;;;1.42;;
74383;SDS011;62824;52.994;-3.936;2023-09-18T12:30:56;3.95;;;1.42;;
74383;SDS011;62824;52.994;-3.936;2023-09-18T12:33:24;3.78;;;1.23;;
74383;SDS011;62824;52.994;-3.936;2023-09-18T12:35:51;3.47;;;1.20;;
74383;SDS011;62824;52.994;-3.936;2023-09-18T12:38:17;4.28;;;1.27;;
74383;SDS011;62824;52.994;-3.936;2023-09-18T12:40:54;6.18;;;1.63;;
74383;SDS011;62824;52.994;-3.936;2023-09-18T12:43:21;3.03;;;1.10;;
74383;SDS011;62824;52.994;-3.936;2023-09-18T12:45:48;7.15;;;1.35;;
74383;SDS011;62824;52.994;-3.936;2023-09-18T12:48:15;7.75;;;2.28;;
74383;SDS011;62824;52.994;-3.936;2023-09-18T12:50:41;3.88;;;1.20;;
74383;SDS011;62824;52.994;-3.936;2023-09-18T12:55:33;3.28;;;1.20;;
74383;SDS011;62824;52.994;-3.936;2023-09-18T12:57:59;4.35;;;1.42;;
74383;SDS011;62824;52.994;-3.936;2023-09-18T13:00:30;2.60;;;0.90;;
74383;SDS011;62824;52.994;-3.936;2023-09-18T13:02:56;3.80;;;1.35;;
74383;SDS011;62824;52.994;-3.936;2023-09-18T13:05:22;4.95;;;1.20;;
74383;SDS011;62824;52.994;-3.936;2023-09-18T13:08:00;2.42;;;1.00;;
74383;SDS011;62824;52.994;-3.936;2023-09-18T13:10:40;5.15;;;1.30;;
74383;SDS011;62824;52.994;-3.936;2023-09-18T13:13:19;6.60;;;1.25;;
74383;SDS011;62824;52.994;-3.936;2023-09-18T13:15:46;3.65;;;1.23;;
74383;SDS011;62824;52.994;-3.936;2023-09-18T13:18:14;2.13;;;1.13;;
74383;SDS011;62824;52.994;-3.936;2023-09-18T13:20:41;4.72;;;1.25;;
74383;SDS011;62824;52.994;-3.936;2023-09-18T13:23:07;3.38;;;1.05;;
74383;SDS011;62824;52.994;-3.936;2023-09-18T13:25:34;3.03;;;1.33;;
74383;SDS011;62824;52.994;-3.936;2023-09-18T13:28:06;3.95;;;1.80;;
74383;SDS011;62824;52.994;-3.936;2023-09-18T13:30:34;3.10;;;1.33;;
74383;SDS011;62824;52.994;-3.936;2023-09-18T13:33:04;4.28;;;1.33;;
74383;SDS011;62824;52.994;-3.936;2023-09-18T13:35:32;4.78;;;1.40;;
74383;SDS011;62824;52.994;-3.936;2023-09-18T13:38:00;7.63;;;1.80;;
74383;SDS011;62824;52.994;-3.936;2023-09-18T13:40:26;5.80;;;1.50;;
74383;SDS011;62824;52.994;-3.936;2023-09-18T13:42:53;6.95;;;1.40;;
74383;SDS011;62824;52.994;-3.936;2023-09-18T13:45:19;4.28;;;1.38;;
74383;SDS011;62824;52.994;-3.936;2023-09-18T13:47:45;3.53;;;1.15;;
74383;SDS011;62824;52.994;-3.936;2023-09-18T13:50:10;10.60;;;4.47;;
74383;SDS011;62824;52.994;-3.936;2023-09-18T13:52:38;3.05;;;1.77;;
74383;SDS011;62824;52.994;-3.936;2023-09-18T13:55:04;5.45;;;1.48;;
74383;SDS011;62824;52.994;-3.936;2023-09-18T13:57:34;3.30;;;1.10;;
74383;SDS011;62824;52.994;-3.936;2023-09-18T14:00:01;3.17;;;1.27;;
74383;SDS011;62824;52.994;-3.936;2023-09-18T14:02:32;4.40;;;1.30;;
74383;SDS011;62824;52.994;-3.936;2023-09-18T14:04:58;7.25;;;1.50;;
74383;SDS011;62824;52.994;-3.936;2023-09-18T14:07:24;4.88;;;1.30;;
74383;SDS011;62824;52.994;-3.936;2023-09-18T14:09:50;2.88;;;1.17;;
74383;SDS011;62824;52.994;-3.936;2023-09-18T14:12:16;3.30;;;1.10;;
74383;SDS011;62824;52.994;-3.936;2023-09-18T14:14:42;5.13;;;2.17;;
74383;SDS011;62824;52.994;-3.936;2023-09-18T14:17:08;6.00;;;1.38;;
74383;SDS011;62824;52.994;-3.936;2023-09-18T14:19:38;6.78;;;1.58;;
74383;SDS011;62824;52.994;-3.936;2023-09-18T14:22:07;4.72;;;1.45;;
74383;SDS011;62824;52.994;-3.936;2023-09-18T14:24:33;5.75;;;1.58;;
74383;SDS011;62824;52.994;-3.936;2023-09-18T14:27:01;3.22;;;1.42;;
74383;SDS011;62824;52.994;-3.936;2023-09-18T14:29:29;6.32;;;1.08;;
74383;SDS011;62824;52.994;-3.936;2023-09-18T14:32:01;5.45;;;1.90;;
74383;SDS011;62824;52.994;-3.936;2023-09-18T14:34:27;4.57;;;1.20;;
74383;SDS011;62824;52.994;-3.936;2023-09-18T14:36:55;5.95;;;2.40;;
74383;SDS011;62824;52.994;-3.936;2023-09-18T14:39:21;4.25;;;1.40;;
74383;SDS011;62824;52.994;-3.936;2023-09-18T14:41:47;2.38;;;0.95;;
74383;SDS011;62824;52.994;-3.936;2023-09-18T14:44:13;1.83;;;0.88;;
74383;SDS011;62824;52.994;-3.936;2023-09-18T14:46:39;5.82;;;1.58;;
74383;SDS011;62824;52.994;-3.936;2023-09-18T14:49:05;8.60;;;2.17;;
74383;SDS011;62824;52.994;-3.936;2023-09-18T14:51:34;5.45;;;1.70;;
74383;SDS011;62824;52.994;-3.936;2023-09-18T14:54:01;4.75;;;1.27;;
74383;SDS011;62824;52.994;-3.936;2023-09-18T14:56:29;4.05;;;1.10;;
74383;SDS011;62824;52.994;-3.936;2023-09-18T14:58:55;2.17;;;1.13;;
74383;SDS011;62824;52.994;-3.936;2023-09-18T15:01:22;5.03;;;1.30;;
74383;SDS011;62824;52.994;-3.936;2023-09-18T15:03:48;5.50;;;1.50;;